sensor_id;sensor_type;location;lat;lon;timestamp;P1;durP1;ratioP1;P2;durP2;ratioP2
76852;SDS011;65825;52.232;10.566;2023-04-25T00:02:03;6.93;;;3.38;;
76852;SDS011;65825;52.232;10.566;2023-04-25T00:04:28;8.32;;;3.55;;
76852;SDS011;65825;52.232;10.566;2023-04-25T00:06:54;5.10;;;2.30;;
76852;SDS011;65825;52.232;10.566;2023-04-25T00:09:20;7.07;;;2.47;;
76852;SDS011;65825;52.232;10.566;2023-04-25T00:11:46;9.23;;;3.00;;
76852;SDS011;65825;52.232;10.566;2023-04-25T00:14:11;6.03;;;2.40;;
76852;SDS011;65825;52.232;10.566;2023-04-25T00:16:36;6.80;;;2.60;;
76852;SDS011;65825;52.232;10.566;2023-04-25T00:19:01;7.23;;;3.00;;
76852;SDS011;65825;52.232;10.566;2023-04-25T00:21:29;6.68;;;2.83;;
76852;SDS011;65825;52.232;10.566;2023-04-25T00:23:56;5.85;;;2.97;;
76852;SDS011;65825;52.232;10.566;2023-04-25T00:26:22;5.53;;;3.00;;
76852;SDS011;65825;52.232;10.566;2023-04-25T00:28:47;6.88;;;2.70;;
76852;SDS011;65825;52.232;10.566;2023-04-25T00:31:13;8.80;;;3.10;;
76852;SDS011;65825;52.232;10.566;2023-04-25T00:33:38;5.18;;;2.53;;
76852;SDS011;65825;52.232;10.566;2023-04-25T00:36:04;9.23;;;2.88;;
76852;SDS011;65825;52.232;10.566;2023-04-25T00:38:30;7.95;;;2.92;;
76852;SDS011;65825;52.232;10.566;2023-04-25T00:40:55;8.05;;;2.92;;
76852;SDS011;65825;52.232;10.566;2023-04-25T00:43:21;6.32;;;2.67;;
76852;SDS011;65825;52.232;10.566;2023-04-25T00:45:47;7.83;;;3.00;;
76852;SDS011;65825;52.232;10.566;2023-04-25T00:48:13;10.38;;;3.03;;
76852;SDS011;65825;52.232;10.566;2023-04-25T00:50:39;7.45;;;2.88;;
76852;SDS011;65825;52.232;10.566;2023-04-25T00:53:05;8.00;;;3.10;;
76852;SDS011;65825;52.232;10.566;2023-04-25T00:55:31;6.13;;;2.83;;
76852;SDS011;65825;52.232;10.566;2023-04-25T00:57:57;9.07;;;2.92;;
76852;SDS011;65825;52.232;10.566;2023-04-25T01:00:23;4.60;;;2.45;;
76852;SDS011;65825;52.232;10.566;2023-04-25T01:02:48;7.63;;;3.17;;
76852;SDS011;65825;52.232;10.566;2023-04-25T01:05:14;5.47;;;2.85;;
76852;SDS011;65825;52.232;10.566;2023-04-25T01:07:40;8.52;;;3.20;;
76852;SDS011;65825;52.232;10.566;2023-04-25T01:10:05;6.35;;;2.97;;
76852;SDS011;65825;52.232;10.566;2023-04-25T01:12:31;7.35;;;3.00;;
76852;SDS011;65825;52.232;10.566;2023-04-25T01:14:57;8.23;;;3.13;;
76852;SDS011;65825;52.232;10.566;2023-04-25T01:17:22;10.40;;;3.63;;
76852;SDS011;65825;52.232;10.566;2023-04-25T01:19:48;11.25;;;3.33;;
76852;SDS011;65825;52.232;10.566;2023-04-25T01:22:16;9.70;;;3.13;;
76852;SDS011;65825;52.232;10.566;2023-04-25T01:24:42;5.60;;;2.70;;
76852;SDS011;65825;52.232;10.566;2023-04-25T01:27:08;9.52;;;3.83;;
76852;SDS011;65825;52.232;10.566;2023-04-25T01:29:36;7.57;;;3.72;;
76852;SDS011;65825;52.232;10.566;2023-04-25T01:32:01;9.82;;;3.08;;
76852;SDS011;65825;52.232;10.566;2023-04-25T01:34:28;6.65;;;3.78;;
76852;SDS011;65825;52.232;10.566;2023-04-25T01:36:53;8.10;;;3.60;;
76852;SDS011;65825;52.232;10.566;2023-04-25T01:39:19;9.98;;;3.33;;
76852;SDS011;65825;52.232;10.566;2023-04-25T01:41:47;7.45;;;3.30;;
76852;SDS011;65825;52.232;10.566;2023-04-25T01:44:14;12.45;;;3.28;;
76852;SDS011;65825;52.232;10.566;2023-04-25T01:46:39;8.35;;;3.50;;
76852;SDS011;65825;52.232;10.566;2023-04-25T01:49:05;8.15;;;2.92;;
76852;SDS011;65825;52.232;10.566;2023-04-25T01:51:30;9.77;;;3.15;;
76852;SDS011;65825;52.232;10.566;2023-04-25T01:53:56;6.43;;;3.10;;
76852;SDS011;65825;52.232;10.566;2023-04-25T01:56:22;10.07;;;3.58;;
76852;SDS011;65825;52.232;10.566;2023-04-25T01:58:48;11.70;;;3.87;;
76852;SDS011;65825;52.232;10.566;2023-04-25T02:01:13;7.30;;;3.40;;
76852;SDS011;65825;52.232;10.566;2023-04-25T02:03:39;8.80;;;3.28;;
76852;SDS011;65825;52.232;10.566;2023-04-25T02:06:04;10.07;;;3.20;;
76852;SDS011;65825;52.232;10.566;2023-04-25T02:08:29;9.65;;;3.53;;
76852;SDS011;65825;52.232;10.566;2023-04-25T02:10:56;9.07;;;3.30;;
76852;SDS011;65825;52.232;10.566;2023-04-25T02:13:21;10.38;;;3.80;;
76852;SDS011;65825;52.232;10.566;2023-04-25T02:15:46;8.73;;;3.90;;
76852;SDS011;65825;52.232;10.566;2023-04-25T02:18:12;9.40;;;3.63;;
76852;SDS011;65825;52.232;10.566;2023-04-25T02:20:37;9.07;;;3.53;;
76852;SDS011;65825;52.232;10.566;2023-04-25T02:23:03;14.02;;;3.67;;
76852;SDS011;65825;52.232;10.566;2023-04-25T02:25:28;12.85;;;4.10;;
76852;SDS011;65825;52.232;10.566;2023-04-25T02:27:54;9.43;;;3.50;;
76852;SDS011;65825;52.232;10.566;2023-04-25T02:30:19;6.80;;;3.20;;
76852;SDS011;65825;52.232;10.566;2023-04-25T02:32:45;7.22;;;3.35;;
76852;SDS011;65825;52.232;10.566;2023-04-25T02:35:10;6.63;;;3.03;;
76852;SDS011;65825;52.232;10.566;2023-04-25T02:37:36;6.97;;;3.25;;
76852;SDS011;65825;52.232;10.566;2023-04-25T02:40:03;8.88;;;3.60;;
76852;SDS011;65825;52.232;10.566;2023-04-25T02:42:29;6.78;;;3.28;;
76852;SDS011;65825;52.232;10.566;2023-04-25T02:44:55;8.27;;;3.88;;
76852;SDS011;65825;52.232;10.566;2023-04-25T02:47:20;10.85;;;3.60;;
76852;SDS011;65825;52.232;10.566;2023-04-25T02:49:46;10.02;;;3.47;;
76852;SDS011;65825;52.232;10.566;2023-04-25T02:52:11;6.57;;;3.00;;
76852;SDS011;65825;52.232;10.566;2023-04-25T02:54:37;7.65;;;3.55;;
76852;SDS011;65825;52.232;10.566;2023-04-25T02:57:05;6.10;;;3.60;;
76852;SDS011;65825;52.232;10.566;2023-04-25T02:59:31;8.45;;;3.65;;
76852;SDS011;65825;52.232;10.566;2023-04-25T03:01:56;10.05;;;4.00;;
76852;SDS011;65825;52.232;10.566;2023-04-25T03:04:21;7.63;;;3.33;;
76852;SDS011;65825;52.232;10.566;2023-04-25T03:06:48;7.28;;;3.97;;
76852;SDS011;65825;52.232;10.566;2023-04-25T03:09:14;9.07;;;3.88;;
76852;SDS011;65825;52.232;10.566;2023-04-25T03:11:39;12.07;;;4.57;;
76852;SDS011;65825;52.232;10.566;2023-04-25T03:14:05;8.47;;;3.73;;
76852;SDS011;65825;52.232;10.566;2023-04-25T03:16:30;6.80;;;4.20;;
76852;SDS011;65825;52.232;10.566;2023-04-25T03:18:56;8.98;;;4.40;;
76852;SDS011;65825;52.232;10.566;2023-04-25T03:21:21;8.70;;;4.13;;
76852;SDS011;65825;52.232;10.566;2023-04-25T03:23:47;12.20;;;4.40;;
76852;SDS011;65825;52.232;10.566;2023-04-25T03:26:12;9.93;;;4.10;;
76852;SDS011;65825;52.232;10.566;2023-04-25T03:28:38;13.50;;;3.83;;
76852;SDS011;65825;52.232;10.566;2023-04-25T03:31:05;7.10;;;4.05;;
76852;SDS011;65825;52.232;10.566;2023-04-25T03:33:30;9.63;;;4.10;;
76852;SDS011;65825;52.232;10.566;2023-04-25T03:35:55;7.73;;;3.80;;
76852;SDS011;65825;52.232;10.566;2023-04-25T03:38:20;7.93;;;4.67;;
76852;SDS011;65825;52.232;10.566;2023-04-25T03:40:46;8.37;;;3.90;;
76852;SDS011;65825;52.232;10.566;2023-04-25T03:43:11;9.17;;;4.13;;
76852;SDS011;65825;52.232;10.566;2023-04-25T03:45:36;9.80;;;4.47;;
76852;SDS011;65825;52.232;10.566;2023-04-25T03:48:01;9.33;;;3.93;;
76852;SDS011;65825;52.232;10.566;2023-04-25T03:50:27;10.60;;;4.47;;
76852;SDS011;65825;52.232;10.566;2023-04-25T03:52:52;9.40;;;4.35;;
76852;SDS011;65825;52.232;10.566;2023-04-25T03:55:17;11.97;;;4.07;;
76852;SDS011;65825;52.232;10.566;2023-04-25T03:57:43;12.05;;;4.40;;
76852;SDS011;65825;52.232;10.566;2023-04-25T04:00:08;10.05;;;4.15;;
76852;SDS011;65825;52.232;10.566;2023-04-25T04:02:34;8.30;;;4.22;;
76852;SDS011;65825;52.232;10.566;2023-04-25T04:05:01;9.77;;;3.75;;
76852;SDS011;65825;52.232;10.566;2023-04-25T04:07:26;8.40;;;3.50;;
76852;SDS011;65825;52.232;10.566;2023-04-25T04:09:51;10.70;;;3.10;;
76852;SDS011;65825;52.232;10.566;2023-04-25T04:12:17;7.13;;;3.20;;
76852;SDS011;65825;52.232;10.566;2023-04-25T04:14:42;12.67;;;3.33;;
76852;SDS011;65825;52.232;10.566;2023-04-25T04:17:07;8.23;;;3.27;;
76852;SDS011;65825;52.232;10.566;2023-04-25T04:19:32;11.37;;;2.93;;
76852;SDS011;65825;52.232;10.566;2023-04-25T04:21:58;11.20;;;3.37;;
76852;SDS011;65825;52.232;10.566;2023-04-25T04:24:23;8.80;;;2.83;;
76852;SDS011;65825;52.232;10.566;2023-04-25T04:26:49;12.10;;;3.80;;
76852;SDS011;65825;52.232;10.566;2023-04-25T04:31:45;8.02;;;2.72;;
76852;SDS011;65825;52.232;10.566;2023-04-25T04:34:15;7.78;;;2.75;;
76852;SDS011;65825;52.232;10.566;2023-04-25T04:36:41;13.07;;;2.67;;
76852;SDS011;65825;52.232;10.566;2023-04-25T04:39:07;12.88;;;3.50;;
76852;SDS011;65825;52.232;10.566;2023-04-25T04:41:34;9.15;;;2.75;;
76852;SDS011;65825;52.232;10.566;2023-04-25T04:43:59;10.90;;;2.95;;
76852;SDS011;65825;52.232;10.566;2023-04-25T04:48:52;9.13;;;3.00;;
76852;SDS011;65825;52.232;10.566;2023-04-25T04:51:18;12.52;;;2.72;;
76852;SDS011;65825;52.232;10.566;2023-04-25T04:53:43;12.45;;;2.97;;
76852;SDS011;65825;52.232;10.566;2023-04-25T04:56:08;10.63;;;3.70;;
76852;SDS011;65825;52.232;10.566;2023-04-25T04:58:34;13.93;;;3.30;;
76852;SDS011;65825;52.232;10.566;2023-04-25T05:01:00;16.25;;;3.30;;
76852;SDS011;65825;52.232;10.566;2023-04-25T05:03:25;8.87;;;2.80;;
76852;SDS011;65825;52.232;10.566;2023-04-25T05:05:52;9.43;;;3.30;;
76852;SDS011;65825;52.232;10.566;2023-04-25T05:08:17;10.20;;;3.30;;
76852;SDS011;65825;52.232;10.566;2023-04-25T05:10:42;9.77;;;3.20;;
76852;SDS011;65825;52.232;10.566;2023-04-25T05:13:07;9.48;;;3.47;;
76852;SDS011;65825;52.232;10.566;2023-04-25T05:15:33;18.20;;;3.53;;
76852;SDS011;65825;52.232;10.566;2023-04-25T05:17:58;9.57;;;2.93;;
76852;SDS011;65825;52.232;10.566;2023-04-25T05:20:23;12.13;;;3.28;;
76852;SDS011;65825;52.232;10.566;2023-04-25T05:22:48;11.85;;;3.00;;
76852;SDS011;65825;52.232;10.566;2023-04-25T05:25:14;14.20;;;3.17;;
76852;SDS011;65825;52.232;10.566;2023-04-25T05:27:39;12.38;;;3.05;;
76852;SDS011;65825;52.232;10.566;2023-04-25T05:30:05;13.77;;;3.22;;
76852;SDS011;65825;52.232;10.566;2023-04-25T05:32:31;9.02;;;2.72;;
76852;SDS011;65825;52.232;10.566;2023-04-25T05:34:56;10.50;;;3.10;;
76852;SDS011;65825;52.232;10.566;2023-04-25T05:37:21;11.33;;;2.77;;
76852;SDS011;65825;52.232;10.566;2023-04-25T05:39:46;13.10;;;2.83;;
76852;SDS011;65825;52.232;10.566;2023-04-25T05:42:12;15.87;;;3.23;;
76852;SDS011;65825;52.232;10.566;2023-04-25T05:44:37;17.08;;;2.85;;
76852;SDS011;65825;52.232;10.566;2023-04-25T05:47:02;7.32;;;2.20;;
76852;SDS011;65825;52.232;10.566;2023-04-25T05:51:54;13.48;;;2.92;;
76852;SDS011;65825;52.232;10.566;2023-04-25T05:54:20;16.33;;;3.47;;
76852;SDS011;65825;52.232;10.566;2023-04-25T05:56:45;11.13;;;2.85;;
76852;SDS011;65825;52.232;10.566;2023-04-25T05:59:10;11.10;;;2.83;;
76852;SDS011;65825;52.232;10.566;2023-04-25T06:01:35;22.35;;;2.80;;
76852;SDS011;65825;52.232;10.566;2023-04-25T06:04:01;10.63;;;3.10;;
76852;SDS011;65825;52.232;10.566;2023-04-25T06:06:26;12.52;;;2.97;;
76852;SDS011;65825;52.232;10.566;2023-04-25T06:08:52;10.77;;;2.40;;
76852;SDS011;65825;52.232;10.566;2023-04-25T06:11:17;12.02;;;2.58;;
76852;SDS011;65825;52.232;10.566;2023-04-25T06:13:43;16.67;;;3.13;;
76852;SDS011;65825;52.232;10.566;2023-04-25T06:16:08;7.82;;;2.20;;
76852;SDS011;65825;52.232;10.566;2023-04-25T06:18:33;14.15;;;3.17;;
76852;SDS011;65825;52.232;10.566;2023-04-25T06:20:59;13.15;;;2.65;;
76852;SDS011;65825;52.232;10.566;2023-04-25T06:23:24;12.53;;;2.50;;
76852;SDS011;65825;52.232;10.566;2023-04-25T06:25:49;7.15;;;2.50;;
76852;SDS011;65825;52.232;10.566;2023-04-25T06:28:15;12.15;;;2.78;;
76852;SDS011;65825;52.232;10.566;2023-04-25T06:30:40;12.77;;;2.95;;
76852;SDS011;65825;52.232;10.566;2023-04-25T06:33:05;9.45;;;2.80;;
76852;SDS011;65825;52.232;10.566;2023-04-25T06:35:31;11.75;;;2.63;;
76852;SDS011;65825;52.232;10.566;2023-04-25T06:37:56;9.27;;;2.20;;
76852;SDS011;65825;52.232;10.566;2023-04-25T06:40:21;9.07;;;2.33;;
76852;SDS011;65825;52.232;10.566;2023-04-25T06:42:47;12.90;;;3.53;;
76852;SDS011;65825;52.232;10.566;2023-04-25T06:45:12;15.27;;;2.60;;
76852;SDS011;65825;52.232;10.566;2023-04-25T06:47:37;9.40;;;2.22;;
76852;SDS011;65825;52.232;10.566;2023-04-25T06:50:03;15.32;;;2.95;;
76852;SDS011;65825;52.232;10.566;2023-04-25T06:52:29;10.15;;;2.50;;
76852;SDS011;65825;52.232;10.566;2023-04-25T06:54:56;12.48;;;2.55;;
76852;SDS011;65825;52.232;10.566;2023-04-25T06:57:22;15.80;;;2.77;;
76852;SDS011;65825;52.232;10.566;2023-04-25T06:59:47;11.05;;;2.67;;
76852;SDS011;65825;52.232;10.566;2023-04-25T07:02:12;10.50;;;2.23;;
76852;SDS011;65825;52.232;10.566;2023-04-25T07:04:38;14.33;;;3.60;;
76852;SDS011;65825;52.232;10.566;2023-04-25T07:07:03;11.23;;;3.33;;
76852;SDS011;65825;52.232;10.566;2023-04-25T07:09:28;16.27;;;2.90;;
76852;SDS011;65825;52.232;10.566;2023-04-25T07:11:54;10.82;;;2.65;;
76852;SDS011;65825;52.232;10.566;2023-04-25T07:14:19;12.23;;;2.70;;
76852;SDS011;65825;52.232;10.566;2023-04-25T07:16:45;12.15;;;2.40;;
76852;SDS011;65825;52.232;10.566;2023-04-25T07:19:10;9.75;;;2.83;;
76852;SDS011;65825;52.232;10.566;2023-04-25T07:21:35;11.07;;;2.30;;
76852;SDS011;65825;52.232;10.566;2023-04-25T07:24:01;10.63;;;2.15;;
76852;SDS011;65825;52.232;10.566;2023-04-25T07:26:26;9.88;;;1.98;;
76852;SDS011;65825;52.232;10.566;2023-04-25T07:28:52;8.80;;;2.20;;
76852;SDS011;65825;52.232;10.566;2023-04-25T07:31:17;9.93;;;2.63;;
76852;SDS011;65825;52.232;10.566;2023-04-25T07:33:46;10.90;;;2.53;;
76852;SDS011;65825;52.232;10.566;2023-04-25T07:36:11;9.10;;;2.42;;
76852;SDS011;65825;52.232;10.566;2023-04-25T07:38:37;11.48;;;2.08;;
76852;SDS011;65825;52.232;10.566;2023-04-25T07:41:03;10.82;;;2.22;;
76852;SDS011;65825;52.232;10.566;2023-04-25T07:43:28;8.27;;;2.42;;
76852;SDS011;65825;52.232;10.566;2023-04-25T07:45:54;7.80;;;2.40;;
76852;SDS011;65825;52.232;10.566;2023-04-25T07:48:19;8.23;;;2.35;;
76852;SDS011;65825;52.232;10.566;2023-04-25T07:50:44;8.20;;;2.58;;
76852;SDS011;65825;52.232;10.566;2023-04-25T07:53:10;10.30;;;1.95;;
76852;SDS011;65825;52.232;10.566;2023-04-25T07:55:36;10.32;;;2.50;;
76852;SDS011;65825;52.232;10.566;2023-04-25T07:58:04;8.80;;;2.10;;
76852;SDS011;65825;52.232;10.566;2023-04-25T08:00:29;5.00;;;1.73;;
76852;SDS011;65825;52.232;10.566;2023-04-25T08:02:55;9.93;;;2.13;;
76852;SDS011;65825;52.232;10.566;2023-04-25T08:05:21;9.27;;;2.00;;
76852;SDS011;65825;52.232;10.566;2023-04-25T08:07:46;8.48;;;1.95;;
76852;SDS011;65825;52.232;10.566;2023-04-25T08:10:11;13.18;;;2.60;;
76852;SDS011;65825;52.232;10.566;2023-04-25T08:12:36;8.23;;;2.38;;
76852;SDS011;65825;52.232;10.566;2023-04-25T08:15:03;10.87;;;2.30;;
76852;SDS011;65825;52.232;10.566;2023-04-25T08:17:28;11.10;;;2.38;;
76852;SDS011;65825;52.232;10.566;2023-04-25T08:19:54;12.60;;;3.30;;
76852;SDS011;65825;52.232;10.566;2023-04-25T08:22:20;11.27;;;2.75;;
76852;SDS011;65825;52.232;10.566;2023-04-25T08:24:45;8.15;;;2.47;;
76852;SDS011;65825;52.232;10.566;2023-04-25T08:27:10;5.30;;;2.53;;
76852;SDS011;65825;52.232;10.566;2023-04-25T08:29:36;8.68;;;2.80;;
76852;SDS011;65825;52.232;10.566;2023-04-25T08:32:01;7.25;;;2.72;;
76852;SDS011;65825;52.232;10.566;2023-04-25T08:34:26;12.67;;;2.87;;
76852;SDS011;65825;52.232;10.566;2023-04-25T08:36:52;7.47;;;2.37;;
76852;SDS011;65825;52.232;10.566;2023-04-25T08:39:17;8.30;;;2.65;;
76852;SDS011;65825;52.232;10.566;2023-04-25T08:41:43;9.88;;;2.50;;
76852;SDS011;65825;52.232;10.566;2023-04-25T08:44:09;6.05;;;2.55;;
76852;SDS011;65825;52.232;10.566;2023-04-25T08:46:37;13.63;;;3.13;;
76852;SDS011;65825;52.232;10.566;2023-04-25T08:49:04;10.52;;;2.70;;
76852;SDS011;65825;52.232;10.566;2023-04-25T08:51:31;6.35;;;2.60;;
76852;SDS011;65825;52.232;10.566;2023-04-25T08:53:57;10.38;;;3.05;;
76852;SDS011;65825;52.232;10.566;2023-04-25T08:56:34;7.18;;;2.10;;
76852;SDS011;65825;52.232;10.566;2023-04-25T08:59:00;8.23;;;2.50;;
76852;SDS011;65825;52.232;10.566;2023-04-25T09:01:27;11.32;;;2.50;;
76852;SDS011;65825;52.232;10.566;2023-04-25T09:03:52;7.85;;;2.63;;
76852;SDS011;65825;52.232;10.566;2023-04-25T09:06:18;9.98;;;2.92;;
76852;SDS011;65825;52.232;10.566;2023-04-25T09:11:09;7.03;;;1.93;;
76852;SDS011;65825;52.232;10.566;2023-04-25T09:13:35;8.40;;;2.22;;
76852;SDS011;65825;52.232;10.566;2023-04-25T09:16:00;9.73;;;2.03;;
76852;SDS011;65825;52.232;10.566;2023-04-25T09:20:55;7.20;;;2.08;;
76852;SDS011;65825;52.232;10.566;2023-04-25T09:23:23;8.13;;;2.15;;
76852;SDS011;65825;52.232;10.566;2023-04-25T09:25:49;7.20;;;2.10;;
76852;SDS011;65825;52.232;10.566;2023-04-25T09:28:16;5.22;;;1.75;;
76852;SDS011;65825;52.232;10.566;2023-04-25T09:30:48;7.43;;;2.28;;
76852;SDS011;65825;52.232;10.566;2023-04-25T09:33:13;5.60;;;1.70;;
76852;SDS011;65825;52.232;10.566;2023-04-25T09:35:42;6.80;;;1.55;;
76852;SDS011;65825;52.232;10.566;2023-04-25T09:38:14;6.93;;;2.08;;
76852;SDS011;65825;52.232;10.566;2023-04-25T09:40:44;6.75;;;1.85;;
76852;SDS011;65825;52.232;10.566;2023-04-25T09:43:20;5.60;;;1.60;;
76852;SDS011;65825;52.232;10.566;2023-04-25T09:45:46;6.05;;;1.83;;
76852;SDS011;65825;52.232;10.566;2023-04-25T09:48:19;6.53;;;1.60;;
76852;SDS011;65825;52.232;10.566;2023-04-25T09:50:50;5.97;;;2.10;;
76852;SDS011;65825;52.232;10.566;2023-04-25T09:53:36;7.10;;;2.00;;
76852;SDS011;65825;52.232;10.566;2023-04-25T09:56:06;3.38;;;1.70;;
76852;SDS011;65825;52.232;10.566;2023-04-25T09:58:33;8.35;;;2.00;;
76852;SDS011;65825;52.232;10.566;2023-04-25T10:01:01;10.02;;;2.33;;
76852;SDS011;65825;52.232;10.566;2023-04-25T10:03:31;7.70;;;2.03;;
76852;SDS011;65825;52.232;10.566;2023-04-25T10:06:01;4.32;;;1.63;;
76852;SDS011;65825;52.232;10.566;2023-04-25T10:08:31;5.50;;;1.70;;
76852;SDS011;65825;52.232;10.566;2023-04-25T10:10:59;10.10;;;2.03;;
76852;SDS011;65825;52.232;10.566;2023-04-25T10:13:27;6.68;;;1.83;;
76852;SDS011;65825;52.232;10.566;2023-04-25T10:15:54;6.93;;;1.85;;
76852;SDS011;65825;52.232;10.566;2023-04-25T10:18:20;7.00;;;2.05;;
76852;SDS011;65825;52.232;10.566;2023-04-25T10:20:46;9.82;;;2.63;;
76852;SDS011;65825;52.232;10.566;2023-04-25T10:23:14;6.65;;;2.03;;
76852;SDS011;65825;52.232;10.566;2023-04-25T10:25:42;6.13;;;1.90;;
76852;SDS011;65825;52.232;10.566;2023-04-25T10:28:08;5.38;;;2.03;;
76852;SDS011;65825;52.232;10.566;2023-04-25T10:30:33;7.13;;;2.00;;
76852;SDS011;65825;52.232;10.566;2023-04-25T10:32:59;4.95;;;1.70;;
76852;SDS011;65825;52.232;10.566;2023-04-25T10:35:28;6.78;;;1.85;;
76852;SDS011;65825;52.232;10.566;2023-04-25T10:38:04;6.70;;;2.00;;
76852;SDS011;65825;52.232;10.566;2023-04-25T10:40:37;7.00;;;1.77;;
76852;SDS011;65825;52.232;10.566;2023-04-25T10:45:56;7.05;;;2.05;;
76852;SDS011;65825;52.232;10.566;2023-04-25T10:48:25;6.97;;;1.67;;
76852;SDS011;65825;52.232;10.566;2023-04-25T10:50:57;5.15;;;2.25;;
76852;SDS011;65825;52.232;10.566;2023-04-25T10:53:33;4.82;;;1.90;;
76852;SDS011;65825;52.232;10.566;2023-04-25T10:55:59;4.20;;;1.50;;
76852;SDS011;65825;52.232;10.566;2023-04-25T10:58:24;6.05;;;1.50;;
76852;SDS011;65825;52.232;10.566;2023-04-25T11:00:51;4.57;;;1.50;;
76852;SDS011;65825;52.232;10.566;2023-04-25T11:03:16;3.58;;;1.50;;
76852;SDS011;65825;52.232;10.566;2023-04-25T11:05:42;5.50;;;1.65;;
76852;SDS011;65825;52.232;10.566;2023-04-25T11:08:11;5.85;;;1.58;;
76852;SDS011;65825;52.232;10.566;2023-04-25T11:10:39;6.40;;;1.85;;
76852;SDS011;65825;52.232;10.566;2023-04-25T11:13:04;4.70;;;1.83;;
76852;SDS011;65825;52.232;10.566;2023-04-25T11:15:30;4.13;;;1.30;;
76852;SDS011;65825;52.232;10.566;2023-04-25T11:17:55;3.63;;;1.50;;
76852;SDS011;65825;52.232;10.566;2023-04-25T11:20:21;4.20;;;1.70;;
76852;SDS011;65825;52.232;10.566;2023-04-25T11:22:47;5.03;;;1.63;;
76852;SDS011;65825;52.232;10.566;2023-04-25T11:25:14;4.32;;;1.42;;
76852;SDS011;65825;52.232;10.566;2023-04-25T11:30:15;3.40;;;1.70;;
76852;SDS011;65825;52.232;10.566;2023-04-25T11:32:41;5.47;;;1.60;;
76852;SDS011;65825;52.232;10.566;2023-04-25T11:35:08;7.88;;;1.60;;
76852;SDS011;65825;52.232;10.566;2023-04-25T11:40:00;5.60;;;1.63;;
76852;SDS011;65825;52.232;10.566;2023-04-25T11:42:25;4.50;;;1.45;;
76852;SDS011;65825;52.232;10.566;2023-04-25T11:44:51;5.28;;;1.50;;
76852;SDS011;65825;52.232;10.566;2023-04-25T11:47:17;5.90;;;1.60;;
76852;SDS011;65825;52.232;10.566;2023-04-25T11:49:42;9.98;;;1.70;;
76852;SDS011;65825;52.232;10.566;2023-04-25T11:52:07;4.07;;;1.70;;
76852;SDS011;65825;52.232;10.566;2023-04-25T11:54:36;8.20;;;1.75;;
76852;SDS011;65825;52.232;10.566;2023-04-25T11:57:03;9.50;;;1.75;;
76852;SDS011;65825;52.232;10.566;2023-04-25T12:01:55;5.32;;;1.70;;
76852;SDS011;65825;52.232;10.566;2023-04-25T12:04:21;3.47;;;1.50;;
76852;SDS011;65825;52.232;10.566;2023-04-25T12:06:48;7.57;;;1.83;;
76852;SDS011;65825;52.232;10.566;2023-04-25T12:09:19;6.35;;;1.77;;
76852;SDS011;65825;52.232;10.566;2023-04-25T12:11:52;4.60;;;1.92;;
76852;SDS011;65825;52.232;10.566;2023-04-25T12:16:54;5.65;;;1.60;;
76852;SDS011;65825;52.232;10.566;2023-04-25T12:19:21;9.57;;;1.60;;
76852;SDS011;65825;52.232;10.566;2023-04-25T12:21:46;3.22;;;1.40;;
76852;SDS011;65825;52.232;10.566;2023-04-25T12:24:14;4.35;;;1.50;;
76852;SDS011;65825;52.232;10.566;2023-04-25T12:29:27;5.57;;;1.38;;
76852;SDS011;65825;52.232;10.566;2023-04-25T12:31:54;5.45;;;1.60;;
76852;SDS011;65825;52.232;10.566;2023-04-25T12:34:21;5.55;;;1.52;;
76852;SDS011;65825;52.232;10.566;2023-04-25T12:39:16;3.75;;;1.48;;
76852;SDS011;65825;52.232;10.566;2023-04-25T12:41:50;4.18;;;1.50;;
76852;SDS011;65825;52.232;10.566;2023-04-25T12:44:18;2.63;;;1.33;;
76852;SDS011;65825;52.232;10.566;2023-04-25T12:46:44;4.55;;;1.50;;
76852;SDS011;65825;52.232;10.566;2023-04-25T12:49:10;6.30;;;1.48;;
76852;SDS011;65825;52.232;10.566;2023-04-25T12:51:35;2.83;;;1.30;;
76852;SDS011;65825;52.232;10.566;2023-04-25T12:54:01;5.07;;;1.83;;
76852;SDS011;65825;52.232;10.566;2023-04-25T12:56:28;4.88;;;1.38;;
76852;SDS011;65825;52.232;10.566;2023-04-25T12:58:54;5.93;;;1.63;;
76852;SDS011;65825;52.232;10.566;2023-04-25T13:01:19;5.75;;;1.50;;
76852;SDS011;65825;52.232;10.566;2023-04-25T13:03:45;5.22;;;1.60;;
76852;SDS011;65825;52.232;10.566;2023-04-25T13:06:11;3.88;;;1.40;;
76852;SDS011;65825;52.232;10.566;2023-04-25T13:08:37;4.20;;;1.30;;
76852;SDS011;65825;52.232;10.566;2023-04-25T13:11:03;7.45;;;1.70;;
76852;SDS011;65825;52.232;10.566;2023-04-25T13:13:29;2.20;;;1.40;;
76852;SDS011;65825;52.232;10.566;2023-04-25T13:15:56;2.92;;;1.40;;
76852;SDS011;65825;52.232;10.566;2023-04-25T13:18:22;4.03;;;1.30;;
76852;SDS011;65825;52.232;10.566;2023-04-25T13:20:51;4.85;;;1.90;;
76852;SDS011;65825;52.232;10.566;2023-04-25T13:23:16;4.20;;;1.55;;
76852;SDS011;65825;52.232;10.566;2023-04-25T13:25:42;5.20;;;1.77;;
76852;SDS011;65825;52.232;10.566;2023-04-25T13:28:07;4.15;;;1.58;;
76852;SDS011;65825;52.232;10.566;2023-04-25T13:30:32;4.53;;;1.53;;
76852;SDS011;65825;52.232;10.566;2023-04-25T13:32:57;3.20;;;1.50;;
76852;SDS011;65825;52.232;10.566;2023-04-25T13:35:27;3.92;;;1.60;;
76852;SDS011;65825;52.232;10.566;2023-04-25T13:37:54;3.63;;;1.50;;
76852;SDS011;65825;52.232;10.566;2023-04-25T13:40:19;4.22;;;1.77;;
76852;SDS011;65825;52.232;10.566;2023-04-25T13:42:45;6.63;;;1.58;;
76852;SDS011;65825;52.232;10.566;2023-04-25T13:45:10;5.80;;;1.60;;
76852;SDS011;65825;52.232;10.566;2023-04-25T13:47:36;2.85;;;1.40;;
76852;SDS011;65825;52.232;10.566;2023-04-25T13:50:01;3.08;;;1.25;;
76852;SDS011;65825;52.232;10.566;2023-04-25T13:52:28;4.57;;;1.35;;
76852;SDS011;65825;52.232;10.566;2023-04-25T13:54:53;3.40;;;1.42;;
76852;SDS011;65825;52.232;10.566;2023-04-25T13:57:19;3.28;;;1.13;;
76852;SDS011;65825;52.232;10.566;2023-04-25T13:59:44;2.90;;;1.23;;
76852;SDS011;65825;52.232;10.566;2023-04-25T14:04:36;3.15;;;1.20;;
76852;SDS011;65825;52.232;10.566;2023-04-25T14:07:02;1.88;;;1.00;;
76852;SDS011;65825;52.232;10.566;2023-04-25T14:09:28;2.17;;;1.10;;
76852;SDS011;65825;52.232;10.566;2023-04-25T14:11:54;3.78;;;1.40;;
76852;SDS011;65825;52.232;10.566;2023-04-25T14:14:20;2.60;;;0.90;;
76852;SDS011;65825;52.232;10.566;2023-04-25T14:19:13;5.35;;;1.40;;
76852;SDS011;65825;52.232;10.566;2023-04-25T14:21:42;2.42;;;1.13;;
76852;SDS011;65825;52.232;10.566;2023-04-25T14:24:08;2.17;;;0.95;;
76852;SDS011;65825;52.232;10.566;2023-04-25T14:26:34;2.60;;;1.05;;
76852;SDS011;65825;52.232;10.566;2023-04-25T14:29:00;4.82;;;1.15;;
76852;SDS011;65825;52.232;10.566;2023-04-25T14:31:26;3.05;;;1.30;;
76852;SDS011;65825;52.232;10.566;2023-04-25T14:33:52;4.32;;;1.30;;
76852;SDS011;65825;52.232;10.566;2023-04-25T14:36:18;3.42;;;1.20;;
76852;SDS011;65825;52.232;10.566;2023-04-25T14:38:43;2.42;;;1.30;;
76852;SDS011;65825;52.232;10.566;2023-04-25T14:41:09;5.75;;;1.20;;
76852;SDS011;65825;52.232;10.566;2023-04-25T14:43:34;6.50;;;1.38;;
76852;SDS011;65825;52.232;10.566;2023-04-25T14:46:01;3.72;;;1.30;;
76852;SDS011;65825;52.232;10.566;2023-04-25T14:48:27;3.05;;;1.15;;
76852;SDS011;65825;52.232;10.566;2023-04-25T14:50:52;4.45;;;1.30;;
76852;SDS011;65825;52.232;10.566;2023-04-25T14:53:17;4.00;;;1.40;;
76852;SDS011;65825;52.232;10.566;2023-04-25T14:55:42;4.53;;;1.40;;
76852;SDS011;65825;52.232;10.566;2023-04-25T14:58:08;4.35;;;1.38;;
76852;SDS011;65825;52.232;10.566;2023-04-25T15:00:33;4.15;;;1.40;;